• Join FlightAware (Why Join?)
  • Login
  • US Flag 
06:08AM EDT


 

Airport Tracker/Info


-or-


 

Live Flight TrackerFlight Track Log ✈ UAL203 ✈ 27-Jun-2013 ✈ KONT - KIAH

Flight Track Log - Related Links

Times and Time Zones

All times are in EDT time to prevent confusion due to time zone crossing. See the UAL203 flight status page for this flight to view local times or setup timezone preferences in your user account.

Time Position Orientation Groundspeed Altitude Reporting Facility
EDT Latitude Longitude Course Direction KTS MPH feet Rate Location/Type
02:26PM 34.0500 -117.6333 90° East 170 196 2,200  Level Southern California TRACON
02:27PM 34.0000 -117.6833 220° Southwest 234 269 4,100 1,860 Climbing Southern California TRACON
02:28PM 33.7701 -117.4112 145° Southeast  Level FlightAware Approximate
02:28PM 33.9161 -117.6122 145° Southeast 271 312 7,000  Level Los Angeles Center
02:29PM 33.7167 -117.3136 90° East  Level FlightAware Approximate
02:29PM 33.8731 -117.5342 124° Southeast 277 319 7,200  Level Los Angeles Center
02:30PM 33.7163 -117.1825 121° Southeast  Level FlightAware Approximate
02:30PM 33.8353 -117.4311 114° Southeast 287 330 9,900  Level Los Angeles Center
02:31PM 33.7000 -117.0460 90° East  Level FlightAware Approximate
02:31PM 33.8078 -117.3256 107° East 333 383 10,400  Level Los Angeles Center
02:32PM 33.7753 -117.2014 107° East 387 445 11,900 1,560 Climbing Los Angeles Center
02:33PM 33.7414 -117.0756 108° East 396 456 13,700 1,860 Climbing Los Angeles Center
02:35PM 33.7003 -116.9194 108° East 409 471 15,800 1,620 Climbing Los Angeles Center
02:36PM 33.6836 -116.8017 100° East 411 473 17,100 1,380 Climbing Los Angeles Center
02:37PM 33.6692 -116.6319 96° East 425 489 18,700 1,320 Climbing Los Angeles Center
02:38PM 33.6561 -116.4867 96° East 435 501 19,900 1,140 Climbing Los Angeles Center
02:39PM 33.6433 -116.3389 96° East 443 510 21,100 840 Climbing Los Angeles Center
02:40PM 33.6300 -116.1867 96° East 455 524 21,900 780 Climbing Los Angeles Center
02:41PM 33.6203 -115.9994 94° East 463 533 22,900 840 Climbing Los Angeles Center
02:42PM 33.6142 -115.8422 93° East 469 540 23,700 960 Climbing Los Angeles Center
02:43PM 33.6064 -115.6508 93° East 476 548 24,900 1,020 Climbing Los Angeles Center
02:44PM 33.5983 -115.4917 93° East 480 552 25,900 960 Climbing Los Angeles Center
02:45PM 33.5908 -115.3361 93° East 470 541 27,000 1,140 Climbing Los Angeles Center
02:46PM 33.5706 -115.1844 99° East 462 532 28,300 1,080 Climbing Los Angeles Center
02:47PM 33.5478 -115.0342 100° East 458 527 29,300 960 Climbing Los Angeles Center
02:48PM 33.5256 -114.8831 100° East 462 532 30,400 1,140 Climbing Los Angeles Center
02:49PM 33.4997 -114.7036 100° East 456 525 31,700 1,020 Climbing Los Angeles Center
02:50PM 33.4786 -114.5553 100° East 454 522 32,600 780 Climbing Los Angeles Center
02:51PM 33.4550 -114.4069 101° East 454 522 33,400 720 Climbing Los Angeles Center
02:52PM 33.4339 -114.2581 100° East 456 525 34,100 600 Climbing Los Angeles Center
02:54PM 33.4047 -114.0547 100° East 460 529 34,900 360 Climbing Albuquerque Center
02:55PM 33.3811 -113.9058 101° East 458 527 35,000  Climbing Albuquerque Center
02:56PM 33.3578 -113.7561 101° East 458 527 35,000 -60 Level Albuquerque Center
02:57PM 33.3353 -113.6067 100° East 456 525 34,900 -60 Descending Albuquerque Center
02:58PM 33.3111 -113.4575 101° East 456 525 34,900  Level Albuquerque Center
02:59PM 33.2869 -113.3100 101° East 454 522 34,900  Level Albuquerque Center
03:00PM 33.2586 -113.1322 101° East 453 521 35,000  Climbing Albuquerque Center
03:01PM 33.2347 -112.9819 101° East 455 524 35,000  Level Albuquerque Center
03:02PM 33.2103 -112.8294 101° East 462 532 35,000  Level Albuquerque Center
03:03PM 33.1858 -112.6806 101° East 459 528 35,000  Level Albuquerque Center
03:04PM 33.1611 -112.5381 102° East 454 522 35,000 -60 Level Albuquerque Center
03:05PM 33.1353 -112.3831 101° East 459 528 34,900  Descending Albuquerque Center
03:06PM 33.1061 -112.2083 101° East 466 536 35,000  Climbing Albuquerque Center
03:07PM 33.0808 -112.0589 101° East 464 534 35,000  Level Albuquerque Center
03:08PM 33.0561 -111.9094 101° East 463 533 35,000  Level Albuquerque Center
03:09PM 33.0303 -111.7619 102° East 459 528 35,000  Level Albuquerque Center
03:10PM 33.0058 -111.6136 101° East 459 528 35,000  Level Albuquerque Center
03:11PM 32.9794 -111.4656 102° East 460 529 35,000  Level Albuquerque Center
03:12PM 32.9483 -111.2853 102° East 465 535 35,000  Level Albuquerque Center
03:13PM 32.9219 -111.1358 102° East 465 535 35,000  Level Albuquerque Center
03:14PM 32.8942 -110.9872 103° East 462 532 35,000  Level Albuquerque Center
03:15PM 32.8686 -110.8369 101° East 465 535 35,000  Level Albuquerque Center
03:16PM 32.8400 -110.6903 103° East 461 531 35,000  Level Albuquerque Center
03:17PM 32.8144 -110.5422 102° East 459 528 35,000  Level Albuquerque Center
03:18PM 32.7817 -110.3658 102° East 457 526 35,000  Level Albuquerque Center
03:19PM 32.7550 -110.2183 102° East 458 527 35,000  Level Albuquerque Center
03:20PM 32.7275 -110.0706 102° East 460 529 35,000  Level Albuquerque Center
03:21PM 32.6958 -109.9208 104° East 466 536 35,000  Level Albuquerque Center
03:22PM 32.6728 -109.7728 100° East 461 531 35,000  Level Albuquerque Center
03:24PM 32.6400 -109.6244 105° East 463 533 35,000 -60 Level Albuquerque Center
03:25PM 32.6008 -109.4486 105° East 463 533 34,900  Descending Albuquerque Center
03:26PM 32.5728 -109.3022 103° East 460 529 35,000  Climbing Albuquerque Center
03:27PM 32.5453 -109.1550 102° East 459 528 34,900 -60 Descending Albuquerque Center
03:28PM 32.5167 -109.0075 103° East 460 529 34,900  Level Albuquerque Center
03:29PM 32.4878 -108.8600 103° East 461 531 35,000  Climbing Albuquerque Center
03:30PM 32.4622 -108.7122 102° East 461 531 34,900  Descending Albuquerque Center
03:31PM 32.4267 -108.5369 103° East 458 527 35,000  Climbing Albuquerque Center
03:32PM 32.3972 -108.3911 103° East 458 527 35,000 -60 Level Albuquerque Center
03:33PM 32.3692 -108.2456 103° East 457 526 34,900  Descending Albuquerque Center
03:34PM 32.3389 -108.0969 104° East 463 533 35,000  Climbing Albuquerque Center
03:35PM 32.3081 -107.9503 104° East 464 534 35,000  Level Albuquerque Center
03:36PM 32.2781 -107.8036 104° East 462 532 35,000 -60 Level Albuquerque Center
03:37PM 32.2419 -107.6286 104° East 461 531 34,900  Descending Albuquerque Center
03:38PM 32.2153 -107.5019 104° East 460 529 35,000  Climbing Albuquerque Center
03:39PM 32.1775 -107.3278 104° East 460 529 35,000  Level Albuquerque Center
03:40PM 32.1511 -107.1917 103° East 464 534 35,000 -60 Level Albuquerque Center
03:41PM 32.1211 -107.0475 104° East 461 531 34,900 -60 Descending Albuquerque Center
03:42PM 32.0839 -106.8742 104° East 459 528 34,900  Level Albuquerque Center
03:43PM 32.0528 -106.7308 104° East 457 526 34,900  Level Albuquerque Center
03:44PM 32.0217 -106.5864 104° East 458 527 35,000  Climbing Albuquerque Center
03:45PM 31.9903 -106.4428 104° East 454 522 35,000 -60 Level Albuquerque Center
03:46PM 31.9592 -106.2997 104° East 454 522 34,900  Descending Albuquerque Center
03:47PM 31.9203 -106.1594 108° East 453 521 35,000 360 Climbing Albuquerque Center
03:48PM 31.8736 -106.0033 109° East 447 514 35,700 660 Climbing Albuquerque Center
03:49PM 31.8336 -105.8642 109° East 450 518 36,400 540 Climbing Albuquerque Center
03:50PM 31.7928 -105.7247 109° East 451 519 36,900 240 Climbing Albuquerque Center
03:51PM 31.7511 -105.5853 109° East 452 520 37,000  Climbing Albuquerque Center
03:52PM 31.7108 -105.4464 109° East 449 517 37,000  Level Albuquerque Center
03:53PM 31.6614 -105.2797 109° East 450 518 37,000  Level Albuquerque Center
03:54PM 31.6211 -105.1414 109° East 447 514 37,000  Level Albuquerque Center
03:55PM 31.5783 -105.0031 110° East 449 517 37,000  Level Albuquerque Center
03:57PM 31.5397 -104.8703 109° East 435 501 37,000  Level Albuquerque Center
03:58PM 31.4989 -104.7356 110° East 434 499 37,000  Level Albuquerque Center
03:59PM 31.4586 -104.6011 109° East 436 502 37,000  Level Albuquerque Center
04:00PM 31.4183 -104.4658 109° East 439 505 37,000  Level Albuquerque Center
04:01PM 31.3672 -104.3047 110° East 439 505 37,000  Level Albuquerque Center
04:02PM 31.3272 -104.1706 109° East 438 504 37,000  Level Albuquerque Center
04:03PM 31.2842 -104.0356 110° East 440 506 37,000 -60 Level Albuquerque Center
04:04PM 31.2422 -103.9014 110° East 441 507 36,900 -60 Descending Albuquerque Center
04:05PM 31.2022 -103.7694 109° East 434 499 36,900  Level Albuquerque Center
04:06PM 31.1592 -103.6356 111° Southeast 437 503 36,900  Level Albuquerque Center
04:07PM 31.1181 -103.5019 110° East 438 504 37,000  Climbing Albuquerque Center
04:08PM 31.0664 -103.3394 110° East 442 509 37,000  Level Albuquerque Center
04:09PM 31.0203 -103.1925 110° East 443 510 37,000  Level Albuquerque Center
04:10PM 30.9850 -103.0836 111° Southeast 442 509 37,000  Level Albuquerque Center
04:11PM 30.9358 -102.9233 110° East 441 507 37,000  Level Albuquerque Center
04:12PM 30.9003 -102.7881 107° East 440 506 37,000  Level Albuquerque Center
04:13PM 30.8631 -102.6525 108° East 440 506 37,000  Level Albuquerque Center
04:14PM 30.8269 -102.5181 107° East 438 504 37,000  Level Albuquerque Center
04:15PM 30.7903 -102.3831 108° East 439 505 37,000  Level Albuquerque Center
04:16PM 30.7583 -102.2650 107° East 439 505 37,000  Level Houston Center
04:17PM 30.7208 -102.1306 108° East 438 504 37,000 -60 Level Houston Center
04:18PM 30.6833 -101.9969 108° East 437 503 36,900 -60 Descending Houston Center
04:19PM 30.6464 -101.8631 108° East 437 503 36,900  Level Houston Center
04:20PM 30.6017 -101.7006 108° East 440 506 37,000  Climbing Houston Center
04:21PM 30.5639 -101.5669 108° East 439 505 37,000  Level Houston Center
04:22PM 30.5253 -101.4333 109° East 438 504 37,000  Level Houston Center
04:23PM 30.4875 -101.2981 108° East 439 505 37,000 -60 Level Houston Center
04:24PM 30.4486 -101.1664 109° East 436 502 36,900 -60 Descending Houston Center
04:25PM 30.4050 -101.0058 107° East 436 502 36,900  Level Houston Center
04:26PM 30.3661 -100.8733 109° East 435 501 37,000  Climbing Houston Center
04:27PM 30.3281 -100.7400 108° East 437 503 36,900  Descending Houston Center
04:28PM 30.2886 -100.6075 109° East 436 502 37,000  Climbing Houston Center
04:29PM 30.2508 -100.4728 108° East 437 503 37,000  Level Houston Center
04:30PM 30.2125 -100.3369 108° East 440 506 37,000  Level Houston Center
04:31PM 30.1739 -100.1989 108° East 439 505 37,000 -60 Level Houston Center
04:32PM 30.1325 -100.0608 109° East 445 512 36,900 -60 Descending Houston Center
04:34PM 30.0831 -99.9033 110° East 435 501 36,900  Level Houston Center
04:35PM 30.0428 -99.7692 109° East 440 506 37,000  Climbing Houston Center
04:36PM 30.0022 -99.6350 109° East 442 509 37,000  Level Houston Center
04:37PM 29.9633 -99.5019 109° East 441 507 37,000  Level Houston Center
04:38PM 29.9239 -99.3697 109° East 437 503 37,000 -60 Level Houston Center
04:39PM 29.8836 -99.2378 109° East 436 502 36,900  Descending Houston Center
04:40PM 29.8336 -99.0742 109° East 439 505 37,000  Climbing Houston Center
04:41PM 29.7919 -98.9425 110° East 440 506 37,000  Level Houston Center
04:42PM 29.7519 -98.8103 109° East 439 505 37,000  Level Houston Center
04:43PM 29.7086 -98.6694 109° East 433 498 37,000 -60 Level Houston Center
04:44PM 29.6703 -98.5433 109° East 434 499 36,900  Descending Houston Center
04:45PM 29.6497 -98.3847 98° East 450 518 37,000  Climbing Houston Center
04:46PM 29.6481 -98.2442 91° East 438 504 37,000  Level Houston Center
04:47PM 29.6489 -98.1058 90° East 434 499 37,000  Level Houston Center
04:48PM 29.6408 -97.9542 93° East 441 507 37,000  Level Houston Center
04:49PM 29.6342 -97.8158 93° East 441 507 37,000  Level Houston Center
04:50PM 29.6275 -97.6747 93° East 442 509 37,000 -480 Level Houston Center
04:51PM 29.6206 -97.5344 93° East 441 507 36,100 -960 Descending Houston Center
04:52PM 29.6128 -97.3942 94° East 440 506 35,100 -1,020 Descending Houston Center
04:53PM 29.6053 -97.2511 93° East 445 512 34,000 -1,500 Descending Houston Center
04:54PM 29.5969 -97.0797 93° East 444 511 32,000 -2,280 Descending Houston Center
04:55PM 29.5897 -96.9342 93° East 451 519 29,300 -3,120 Descending Houston Center
04:56PM 29.5814 -96.7850 94° East 459 528 25,600 -3,240 Descending Houston Center
04:57PM 29.5728 -96.6383 94° East 457 526 22,700 -3,060 Descending Houston Center
04:58PM 29.5650 -96.4944 94° East 450 518 19,300 -3,240 Descending Houston Center
04:59PM 29.5561 -96.3536 94° East 444 511 16,100 -3,060 Descending Houston Center
05:00PM 29.5481 -96.2206 94° East 422 486 13,000 -2,100 Descending Houston Center
05:01PM 29.5831 -96.0906 73° East 394 453 11,900 -960 Descending Houston Center
05:03PM 29.6406 -95.9794 59° Northeast 397 457 11,100 -900 Descending Houston Center
05:04PM 29.6950 -95.8694 60° Northeast 397 457 10,100 -540 Descending Houston Center
05:05PM 29.7506 -95.7597 60° Northeast 396 456 10,000 -180 Descending Houston Center
05:06PM 29.8047 -95.6519 60° Northeast 313 360 9,800 -900 Descending Houston Center
05:07PM 29.8492 -95.5594 61° Northeast 289 333 8,100 -1,560 Descending Houston Center
05:08PM 29.8903 -95.4822 58° Northeast 287 330 6,500 -1,020 Descending Houston Center
05:09PM 29.8958 -95.4025 85° East 283 326 6,100 -300 Descending Houston Center
05:10PM 29.8969 -95.3119 89° East 281 323 6,000 -720 Descending Houston Center
05:11PM 29.8961 -95.2208 91° East 282 325 4,600 -1,620 Descending Houston Center
05:12PM 29.8978 -95.1342 89° East 275 316 2,700 -1,320 Descending Houston Center
05:13PM 29.9617 -95.1169 13° North 221 254 2,000 -720 Descending Houston Center